Wednesday, November 14, 2018, 2:44 AM EST
Back to Local

KMDT, Harrisburg International Airport

Location: Middletown, PA, United States Lat: 40.2
Local Time: 2:44 AM EST ( 7:44 GMT) Lon: -76.767
Time Zone: US/Eastern Elev: 308 ft

Show me the last for .
Show Decoded

2018-11-14 01:56 METAR KMDT 140656Z 31013KT 10SM FEW050 OVC240 03/M06 A3027 RMK AO2 SLP252
                 T00331056 =
2018-11-13 23:56 METAR KMDT 140456Z 31014KT 10SM OVC230 04/M07 A3024 RMK AO2 PK WND 31027/0424
                 SLP242 T00391067 400720039 =
2018-11-13 22:56 METAR KMDT 140356Z 31020G27KT 10SM FEW050 OVC230 04/M05 A3023 RMK AO2 PK WND
                 31031/0306 SLP238 T00441050 =
2018-11-13 21:56 METAR KMDT 140256Z 31023G33KT 10SM BKN050 OVC230 06/M03 A3020 RMK AO2 PK WND
                 31033/0254 SLP229 T00561033 53026 =
2018-11-13 20:56 METAR KMDT 140156Z 31016G26KT 10SM OVC041 06/M02 A3016 RMK AO2 PK WND 32026/0150
                 SLP215 T00611017 =
2018-11-13 19:56 METAR KMDT 140056Z 30008KT 10SM BKN050 BKN100 OVC200 06/00 A3014 RMK AO2 SLP208
                 T00610000 =
2018-11-13 18:56 METAR KMDT 132356Z 31008KT 10SM FEW050 BKN100 BKN200 06/01 A3012 RMK AO2 SLP202
                 60000 T00610006 10072 20061 53022 =
2018-11-13 17:56 METAR KMDT 132256Z 31011KT 10SM BKN036 OVC045 07/01 A3010 RMK AO2 SLP195
                 T00670011 =
2018-11-13 16:56 METAR KMDT 132156Z 30005KT 10SM BKN036 OVC043 07/02 A3007 RMK AO2 SLP185
                 T00670017 =
2018-11-13 15:56 METAR KMDT 132056Z 31011KT 10SM BKN033 OVC095 07/01 A3005 RMK AO2 SLP180 60000
                 T00670011 51024 =
2018-11-13 14:56 METAR KMDT 131956Z 31011KT 10SM FEW028 OVC090 07/02 A3004 RMK AO2 SLP174
                 T00720022 =
2018-11-13 13:56 METAR KMDT 131856Z 32016KT 10SM OVC090 07/02 A3001 RMK AO2 RAB08E36 SLP164 P0000
                 T00720022 =
2018-11-13 12:56 METAR KMDT 131756Z 32012KT 10SM SCT021 OVC110 07/03 A2998 RMK AO2 SLP156 60002
                 T00720028 10072 20050 55001 =
2018-11-13 12:18 METAR KMDT 131718Z 31010KT 10SM BKN020 OVC110 07/03 A2998 RMK AO2 T00720033 =
2018-11-13 11:56 METAR KMDT 131656Z 32008KT 10SM FEW015 OVC110 07/03 A2998 RMK AO2 SLP155
                 T00720033 =
2018-11-13 11:42 METAR KMDT 131642Z 32013KT 10SM FEW015 SCT029 OVC110 07/03 A2998 RMK AO2
                 T00670033 =
2018-11-13 11:07 METAR KMDT 131607Z 32015KT 10SM FEW013 OVC027 07/04 A2998 RMK AO2 T00670039 =
2018-11-13 10:56 METAR KMDT 131556Z 32014KT 10SM FEW014 OVC030 07/04 A2999 RMK AO2 SLP157
                 T00670039 =
2018-11-13 09:56 METAR KMDT 131456Z 32013KT 10SM FEW011 SCT023 OVC030 06/04 A2998 RMK AO2 SLP156
                 60002 T00610039 55000 =
2018-11-13 09:29 METAR KMDT 131429Z 31013KT 10SM SCT010 OVC022 06/04 A2999 RMK AO2 T00560039 =
2018-11-13 08:56 METAR KMDT 131356Z 31012KT 10SM BKN008 OVC015 06/04 A2998 RMK AO2 RAB00E07
                 SLP157 P0001 T00560039 =
2018-11-13 08:38 METAR KMDT 131338Z 31013KT 10SM BKN007 OVC015 05/03 A2998 RMK AO2 RAB00E07 CIG
                 005V010 P0001 T00500033 =
2018-11-13 08:04 METAR KMDT 131304Z 31012KT 2 1/2SM -RA BR OVC005 06/04 A2998 RMK AO2 RAB00 CIG
                 003V008 P0001 T00560044 =
2018-11-13 07:56 METAR KMDT 131256Z 31010KT 2 1/2SM BR OVC003 06/04 A2997 RMK AO2 RAE29 CIG
                 003V008 SLP153 P0001 T00560044 =
2018-11-13 07:23 METAR KMDT 131223Z 31006KT 2 1/2SM -RA BR BKN003 OVC027 05/04 A2998 RMK AO2
                 P0001 T00500044 =
2018-11-13 07:13 METAR KMDT 131213Z 31006KT 3SM -RA BR BKN003 OVC027 05/04 A2997 RMK AO2 P0001
                 T00500044 =
2018-11-13 06:56 METAR KMDT 131156Z 31008KT 3SM -RA BR SCT005 OVC027 05/04 A2998 RMK AO2 SLP156
                 P0004 60047 70081 T00500039 10050 20044 56026 =
2018-11-13 06:45 METAR KMDT 131145Z 31008KT 3SM -RA BR SCT005 BKN011 OVC026 05/04 A2999 RMK AO2
                 P0004 T00500039 =
2018-11-13 06:25 METAR KMDT 131125Z 31008KT 3SM -RA BR BKN004 OVC011 05/04 A2998 RMK AO2 P0003
                 T00500039 =
2018-11-13 06:17 METAR KMDT 131117Z 30009KT 2 1/2SM -RA BR OVC006 05/04 A2999 RMK AO2 P0002
                 T00500039 =
2018-11-13 06:10 METAR KMDT 131110Z 30009KT 2 1/2SM -RA BR BKN004 OVC008 05/04 A2999 RMK AO2 CIG
                 003V006 P0002 T00500039 =
2018-11-13 05:56 METAR KMDT 131056Z 32007KT 3SM -RA BR BKN006 OVC017 05/04 A3000 RMK AO2 CIG
                 004V009 SLP160 P0005 T00500039 =
2018-11-13 04:56 METAR KMDT 130956Z 32006KT 4SM -RA BR OVC005 04/03 A3003 RMK AO2 SLP171 P0011
                 T00440033 =
2018-11-13 04:37 METAR KMDT 130937Z 33005KT 3SM -RA BR OVC005 04/03 A3003 RMK AO2 P0008 T00440033
                 =
2018-11-13 03:56 METAR KMDT 130856Z 35004KT 2SM R13/3500VP6000FT RA BR OVC006 04/03 A3006 RMK AO2
                 SLP181 P0014 60027 T00440033 56040 =
2018-11-13 03:23 METAR KMDT 130823Z VRB03KT 2 1/2SM R13/5000VP6000FT RA BR OVC006 04/03 A3008 RMK
                 AO2 P0006 T00440033 =
2018-11-13 02:56 METAR KMDT 130756Z VRB03KT 3SM RA BR OVC005 04/03 A3008 RMK AO2 PRESFR SLP189
                 P0007 T00440033 =

Support USWX by starting your Amazon purchase here.